Time;durP1;ratioP1;P1;durP2;ratioP2;P2;SDS_P1;SDS_P2;PMS_P1;PMS_P2;Temp;Humidity;BMP_temperature;BMP_pressure;BME280_temperature;BME280_humidity;BME280_pressure;Samples;Min_cycle;Max_cycle;Signal;HPM_P1;HPM_P2
2021/01/20 00:01:02;;;;;;;10.60;5.50;;;6.20;99.90;;;;;;4987885;28;20427;-41
2021/01/20 00:03:28;;;;;;;11.87;6.37;;;6.20;99.90;;;;;;4986418;28;20538;-41
2021/01/20 00:05:56;;;;;;;14.47;6.87;;;6.20;99.90;;;;;;4987255;28;20443;-44
2021/01/20 00:08:23;;;;;;;12.70;5.77;;;6.20;99.90;;;;;;4987217;28;20481;-44
2021/01/20 00:10:49;;;;;;;11.20;7.80;;;6.10;99.90;;;;;;4988799;28;20451;-43
2021/01/20 00:13:17;;;;;;;14.00;7.93;;;6.10;99.90;;;;;;4992144;28;20471;-44
2021/01/20 00:15:44;;;;;;;11.33;6.70;;;6.10;99.90;;;;;;4991197;28;20447;-44
2021/01/20 00:18:10;;;;;;;10.63;7.20;;;6.10;99.90;;;;;;4991576;28;20526;-44
2021/01/20 00:20:36;;;;;;;10.33;7.30;;;6.00;99.90;;;;;;4990211;28;20466;-41
2021/01/20 00:23:17;;;;;;;8.90;6.43;;;6.00;99.90;;;;;;4999813;28;20514;-40
2021/01/20 00:25:43;;;;;;;7.30;6.00;;;6.00;99.90;;;;;;4999959;28;20497;-41
2021/01/20 00:28:12;;;;;;;10.13;6.07;;;6.00;99.90;;;;;;4999630;28;20450;-40
2021/01/20 00:30:39;;;;;;;12.50;6.83;;;6.00;99.90;;;;;;4998879;28;20475;-41
2021/01/20 00:33:05;;;;;;;7.83;5.63;;;6.00;99.90;;;;;;4999075;28;20439;-40
2021/01/20 00:35:42;;;;;;;7.60;5.60;;;5.90;99.90;;;;;;4999343;28;20474;-40
2021/01/20 00:38:09;;;;;;;9.70;6.50;;;5.90;99.90;;;;;;4999406;28;20442;-40
2021/01/20 00:40:36;;;;;;;9.33;6.10;;;5.90;99.90;;;;;;4999222;28;20486;-42
2021/01/20 00:43:02;;;;;;;10.47;7.40;;;5.80;99.90;;;;;;4998743;28;20474;-42
2021/01/20 00:45:28;;;;;;;10.40;6.33;;;5.80;99.90;;;;;;4999027;28;20445;-41
2021/01/20 00:47:58;;;;;;;9.10;6.53;;;5.90;99.90;;;;;;4999478;28;20456;-41
2021/01/20 00:50:35;;;;;;;10.07;7.07;;;5.90;99.90;;;;;;4999029;28;20453;-41
2021/01/20 00:53:05;;;;;;;8.90;4.97;;;5.80;99.90;;;;;;4999463;28;20425;-42
2021/01/20 00:55:32;;;;;;;12.10;7.17;;;5.80;99.90;;;;;;5015152;23;20518;-46
2021/01/20 00:57:59;;;;;;;8.60;6.17;;;5.80;99.90;;;;;;4952962;29;20464;-51
2021/01/20 01:00:25;;;;;;;9.17;7.23;;;5.80;99.90;;;;;;4959909;28;20484;-47
2021/01/20 01:02:52;;;;;;;11.90;5.63;;;5.80;99.90;;;;;;4957994;29;20495;-44
2021/01/20 01:07:55;;;;;;;9.30;5.70;;;5.90;99.90;;;;;;5722925;23;20489;-47
2021/01/20 01:10:21;;;;;;;7.63;4.97;;;5.80;99.90;;;;;;4995558;28;20447;-44
2021/01/20 01:12:48;;;;;;;9.87;6.47;;;5.80;99.90;;;;;;4995305;28;20467;-45
2021/01/20 01:15:15;;;;;;;8.60;5.80;;;5.80;99.90;;;;;;4995020;28;20938;-47
2021/01/20 01:17:42;;;;;;;6.97;5.20;;;5.80;99.90;;;;;;4995519;28;20471;-48
2021/01/20 01:20:09;;;;;;;9.47;5.77;;;5.80;99.90;;;;;;4983131;28;20464;-47
2021/01/20 01:22:35;;;;;;;8.47;5.70;;;5.80;99.90;;;;;;4993940;28;20478;-46
2021/01/20 01:25:03;;;;;;;9.27;6.07;;;5.80;99.90;;;;;;4996062;28;20477;-49
2021/01/20 01:27:32;;;;;;;10.30;6.33;;;5.80;99.90;;;;;;4995529;28;20470;-44
2021/01/20 01:30:00;;;;;;;9.00;6.20;;;5.80;99.90;;;;;;4994953;28;20470;-46
2021/01/20 01:32:26;;;;;;;9.60;6.77;;;5.90;99.90;;;;;;4994640;28;20442;-47
2021/01/20 01:34:53;;;;;;;7.93;4.97;;;5.90;99.90;;;;;;4993695;28;20741;-45
2021/01/20 01:37:19;;;;;;;8.47;5.40;;;5.90;99.90;;;;;;4993346;28;20522;-47
2021/01/20 01:39:46;;;;;;;12.63;6.20;;;5.90;99.90;;;;;;4993925;28;20454;-44
2021/01/20 01:42:43;;;;;;;10.03;5.93;;;5.90;99.90;;;;;;4994088;28;20833;-46
2021/01/20 01:45:12;;;;;;;8.77;5.90;;;5.80;99.90;;;;;;4994778;28;20453;-46
2021/01/20 01:47:39;;;;;;;6.80;5.00;;;5.80;99.90;;;;;;4994666;28;20530;-46
2021/01/20 01:50:08;;;;;;;8.33;5.50;;;5.80;99.90;;;;;;4995540;28;20454;-46
2021/01/20 01:52:35;;;;;;;8.67;6.30;;;5.80;99.90;;;;;;4993608;28;20451;-52
2021/01/20 01:55:02;;;;;;;8.07;5.27;;;5.80;99.90;;;;;;4977591;28;20424;-48
2021/01/20 01:57:28;;;;;;;6.30;5.33;;;5.80;99.90;;;;;;4966609;28;20518;-48
2021/01/20 02:45:56;;;;;;;10.63;7.37;;;5.70;99.90;;;;;;5994406;23;20402;-49
2021/01/20 02:48:22;;;;;;;9.60;7.90;;;5.70;99.90;;;;;;4997875;28;20472;-46
2021/01/20 02:50:50;;;;;;;7.90;6.27;;;5.70;99.90;;;;;;4994951;28;20453;-46
2021/01/20 02:53:19;;;;;;;7.53;6.17;;;5.70;99.90;;;;;;4994968;28;20521;-49
2021/01/20 02:55:49;;;;;;;9.43;7.30;;;5.70;99.90;;;;;;4994675;28;20450;-52
2021/01/20 02:58:23;;;;;;;9.97;7.00;;;5.70;99.90;;;;;;4994443;28;20458;-45
2021/01/20 03:00:51;;;;;;;9.17;7.13;;;5.70;99.90;;;;;;4994647;28;20450;-45
2021/01/20 03:03:19;;;;;;;10.47;7.77;;;5.70;99.90;;;;;;4994537;28;20486;-45
2021/01/20 03:05:46;;;;;;;13.80;8.83;;;5.70;99.90;;;;;;4994490;28;20557;-48
2021/01/20 03:08:14;;;;;;;9.53;7.80;;;5.70;99.90;;;;;;4994221;28;20909;-50
2021/01/20 03:10:41;;;;;;;9.67;6.63;;;5.70;99.90;;;;;;4994471;28;20762;-44
2021/01/20 03:13:07;;;;;;;9.53;6.70;;;5.70;99.90;;;;;;4994424;28;21138;-51
2021/01/20 03:15:37;;;;;;;12.80;8.13;;;5.70;99.90;;;;;;4994397;28;20988;-47
2021/01/20 03:18:04;;;;;;;7.33;6.60;;;5.70;99.90;;;;;;4994607;28;20815;-43
2021/01/20 03:20:35;;;;;;;10.63;7.17;;;5.70;99.90;;;;;;4994634;28;20450;-51
2021/01/20 03:23:02;;;;;;;11.13;6.83;;;5.60;99.90;;;;;;4994411;28;20496;-47
2021/01/20 03:25:28;;;;;;;10.07;7.53;;;5.60;99.90;;;;;;4994238;28;20529;-47
2021/01/20 03:27:55;;;;;;;8.60;7.20;;;5.60;99.90;;;;;;4993915;28;20553;-50
2021/01/20 03:30:22;;;;;;;10.17;7.97;;;5.60;99.90;;;;;;4994332;28;20520;-47
2021/01/20 03:32:48;;;;;;;8.67;6.50;;;5.60;99.90;;;;;;4994086;28;20479;-48
2021/01/20 03:35:15;;;;;;;8.43;6.63;;;5.60;99.90;;;;;;4994077;28;20553;-46
2021/01/20 03:37:43;;;;;;;9.27;6.07;;;5.60;99.90;;;;;;4994151;28;20553;-49
2021/01/20 03:40:10;;;;;;;7.83;5.97;;;5.60;99.90;;;;;;4993978;28;20438;-47
2021/01/20 03:42:37;;;;;;;6.70;5.47;;;5.70;99.90;;;;;;4994124;28;20775;-48
2021/01/20 03:45:04;;;;;;;7.70;6.60;;;5.70;99.90;;;;;;4993927;28;20841;-47
2021/01/20 03:47:31;;;;;;;6.43;5.70;;;5.60;99.90;;;;;;4993687;28;20478;-47
2021/01/20 03:49:57;;;;;;;9.03;5.07;;;5.60;99.90;;;;;;4993927;28;20461;-47
2021/01/20 03:52:23;;;;;;;6.83;5.50;;;5.70;99.90;;;;;;4993597;28;20623;-46
2021/01/20 03:54:51;;;;;;;7.60;4.97;;;5.70;99.90;;;;;;4994226;28;20490;-48
2021/01/20 03:57:18;;;;;;;7.83;5.83;;;5.60;99.90;;;;;;4993621;28;20446;-48
2021/01/20 03:59:44;;;;;;;8.30;5.73;;;5.60;99.90;;;;;;4994077;28;20511;-49
2021/01/20 04:02:10;;;;;;;15.60;6.10;;;5.60;99.90;;;;;;4993683;28;20521;-47
2021/01/20 04:04:37;;;;;;;7.67;4.43;;;5.60;99.90;;;;;;4994012;28;20837;-43
2021/01/20 04:07:04;;;;;;;8.97;5.03;;;5.60;99.90;;;;;;4993994;28;20450;-43
2021/01/20 04:09:30;;;;;;;10.00;6.20;;;5.60;99.90;;;;;;4993788;28;20837;-46
2021/01/20 04:11:57;;;;;;;5.33;4.43;;;5.50;99.90;;;;;;4993642;28;20538;-49
2021/01/20 04:14:24;;;;;;;9.00;5.53;;;5.50;99.90;;;;;;4993635;28;20449;-49
2021/01/20 04:16:50;;;;;;;10.17;4.67;;;5.50;99.90;;;;;;4993799;28;20453;-46
2021/01/20 04:19:17;;;;;;;9.90;5.53;;;5.40;99.90;;;;;;4993960;28;20528;-45
2021/01/20 04:21:43;;;;;;;10.20;5.17;;;5.40;99.90;;;;;;4993812;28;20625;-50
2021/01/20 04:24:10;;;;;;;11.23;6.23;;;5.40;99.90;;;;;;4993724;28;20544;-47
2021/01/20 04:26:37;;;;;;;7.43;5.77;;;5.40;99.90;;;;;;4993721;28;20466;-50
2021/01/20 04:29:04;;;;;;;8.20;6.30;;;5.40;99.90;;;;;;4993521;28;20450;-50
2021/01/20 04:31:31;;;;;;;11.20;7.27;;;5.40;99.90;;;;;;4993685;28;20533;-49
2021/01/20 04:33:57;;;;;;;9.90;5.70;;;5.30;99.90;;;;;;4993599;28;20454;-47
2021/01/20 04:36:24;;;;;;;8.73;6.80;;;5.30;99.90;;;;;;4993589;28;20859;-51
2021/01/20 04:38:50;;;;;;;10.10;6.47;;;5.40;99.90;;;;;;4993652;28;20489;-46
2021/01/20 04:41:17;;;;;;;12.50;6.27;;;5.40;99.90;;;;;;4993877;28;20465;-46
2021/01/20 04:43:44;;;;;;;12.10;5.10;;;5.40;99.90;;;;;;4993321;28;20517;-46
2021/01/20 04:46:12;;;;;;;7.73;5.53;;;5.40;99.90;;;;;;4993472;28;20572;-44
2021/01/20 04:48:39;;;;;;;8.50;5.63;;;5.40;99.90;;;;;;5014154;28;20469;-45
2021/01/20 04:51:07;;;;;;;8.67;4.90;;;5.50;99.90;;;;;;5016660;28;20433;-49
2021/01/20 04:53:38;;;;;;;5.90;4.70;;;5.50;99.90;;;;;;5016563;28;20440;-48
2021/01/20 04:56:07;;;;;;;11.23;5.10;;;5.50;99.90;;;;;;5017255;28;20414;-48
2021/01/20 04:58:33;;;;;;;6.87;5.63;;;5.50;99.90;;;;;;5020026;28;20422;-46
2021/01/20 05:01:01;;;;;;;8.20;4.77;;;5.50;99.90;;;;;;5020389;28;20446;-51
2021/01/20 05:03:28;;;;;;;6.57;4.80;;;5.50;99.90;;;;;;5019999;28;20509;-51
2021/01/20 05:08:36;;;;;;;4.90;3.90;;;5.50;99.90;;;;;;5533115;23;20501;-46
2021/01/20 05:11:03;;;;;;;6.47;5.47;;;5.50;99.90;;;;;;4980967;29;20458;-47
2021/01/20 05:13:32;;;;;;;5.97;4.50;;;5.50;99.90;;;;;;5000415;28;20462;-47
2021/01/20 05:15:59;;;;;;;7.20;5.23;;;5.50;99.90;;;;;;5000139;28;20473;-46
2021/01/20 05:18:25;;;;;;;9.83;4.77;;;5.50;99.90;;;;;;5000790;28;20505;-46
2021/01/20 05:20:53;;;;;;;7.20;4.70;;;5.50;99.90;;;;;;5000397;28;20498;-51
2021/01/20 05:23:25;;;;;;;5.10;3.87;;;5.60;99.90;;;;;;5000907;28;20478;-43
2021/01/20 05:25:51;;;;;;;6.77;4.60;;;5.50;99.90;;;;;;5000790;28;20458;-43
2021/01/20 05:28:19;;;;;;;6.40;4.90;;;5.60;99.90;;;;;;5001010;28;20466;-47
2021/01/20 05:30:47;;;;;;;7.57;5.13;;;5.60;99.90;;;;;;5000595;28;20431;-45
2021/01/20 05:33:16;;;;;;;7.83;4.77;;;5.60;99.90;;;;;;5000825;28;20461;-45
2021/01/20 05:35:43;;;;;;;5.00;3.90;;;5.60;99.90;;;;;;5000755;28;20439;-45
2021/01/20 05:38:10;;;;;;;11.00;4.80;;;5.50;99.90;;;;;;4981926;28;20523;-46
2021/01/20 05:40:37;;;;;;;8.97;4.57;;;5.50;99.90;;;;;;4965082;28;20640;-50
2021/01/20 05:43:05;;;;;;;6.40;4.77;;;5.50;99.90;;;;;;4965923;28;20476;-47
2021/01/20 05:45:31;;;;;;;10.27;5.17;;;5.40;99.90;;;;;;4964734;29;20550;-46
2021/01/20 05:48:08;;;;;;;7.50;4.10;;;5.40;99.90;;;;;;4964844;29;20475;-45
2021/01/20 05:50:36;;;;;;;4.93;4.20;;;5.40;99.90;;;;;;4965094;29;20488;-49
2021/01/20 05:53:07;;;;;;;7.17;4.83;;;5.40;99.90;;;;;;4964531;29;20486;-47
2021/01/20 05:55:35;;;;;;;5.23;4.20;;;5.40;99.90;;;;;;4964578;29;20507;-46
2021/01/20 05:58:02;;;;;;;5.90;4.23;;;5.40;99.90;;;;;;4964775;29;20547;-46
2021/01/20 06:00:29;;;;;;;5.17;4.20;;;5.40;99.90;;;;;;4964623;29;20459;-45
2021/01/20 06:02:57;;;;;;;6.10;4.30;;;5.40;99.90;;;;;;4964861;29;20921;-43
2021/01/20 06:05:24;;;;;;;5.23;3.83;;;5.40;99.90;;;;;;4966304;29;20456;-47
2021/01/20 06:07:51;;;;;;;7.40;4.27;;;5.40;99.90;;;;;;4964669;28;20452;-48
2021/01/20 06:10:19;;;;;;;6.90;4.90;;;5.30;99.90;;;;;;4964176;29;20458;-44
2021/01/20 06:12:47;;;;;;;5.90;3.77;;;5.30;99.90;;;;;;4964706;29;20455;-46
2021/01/20 06:15:14;;;;;;;7.23;4.47;;;5.40;99.90;;;;;;4965379;29;20490;-45
2021/01/20 06:17:42;;;;;;;6.07;4.30;;;5.40;99.90;;;;;;4965584;29;20444;-48
2021/01/20 06:20:10;;;;;;;5.33;3.97;;;5.40;99.90;;;;;;4964962;29;20508;-45
2021/01/20 06:22:46;;;;;;;5.97;4.63;;;5.30;99.90;;;;;;4964453;29;20518;-45
2021/01/20 06:25:20;;;;;;;6.90;4.30;;;5.30;99.90;;;;;;4964474;29;20450;-46
2021/01/20 06:27:51;;;;;;;6.93;4.50;;;5.30;99.90;;;;;;4964286;29;20519;-43
2021/01/20 06:30:23;;;;;;;7.73;4.83;;;5.30;99.90;;;;;;4963720;29;20518;-47
2021/01/20 06:32:50;;;;;;;10.40;4.30;;;5.30;99.90;;;;;;4964007;29;20498;-47
2021/01/20 06:35:17;;;;;;;6.17;3.20;;;5.30;99.90;;;;;;4964412;29;20499;-48
2021/01/20 06:37:45;;;;;;;8.67;3.83;;;5.30;99.90;;;;;;4963936;29;20454;-47
2021/01/20 06:40:37;;;;;;;6.27;3.90;;;5.30;99.90;;;;;;4963642;29;20491;-44
2021/01/20 06:43:35;;;;;;;7.57;5.07;;;5.30;99.90;;;;;;4964062;29;20578;-47
2021/01/20 06:46:25;;;;;;;7.70;4.63;;;5.30;99.90;;;;;;4964506;29;20602;-48
2021/01/20 06:49:16;;;;;;;6.40;4.80;;;5.30;99.90;;;;;;4955470;29;20459;-47
2021/01/20 06:52:04;;;;;;;5.13;4.00;;;5.30;99.90;;;;;;4965050;29;20472;-44
2021/01/20 06:54:35;;;;;;;6.87;3.70;;;5.40;99.90;;;;;;4964749;29;20523;-49
2021/01/20 06:57:02;;;;;;;5.70;3.47;;;5.40;99.90;;;;;;4964204;29;20440;-49
2021/01/20 06:59:30;;;;;;;9.20;3.60;;;5.30;99.90;;;;;;4964787;29;20464;-46
2021/01/20 07:02:15;;;;;;;4.50;3.40;;;5.30;99.90;;;;;;4964125;29;20494;-49
2021/01/20 07:05:06;;;;;;;3.97;3.53;;;5.30;99.90;;;;;;4964960;29;20937;-47
2021/01/20 07:08:06;;;;;;;10.00;3.50;;;5.30;99.90;;;;;;4964129;29;20488;-46
2021/01/20 07:11:06;;;;;;;4.80;3.73;;;5.30;99.90;;;;;;4964089;29;20527;-44
2021/01/20 07:13:42;;;;;;;7.00;3.20;;;5.30;99.90;;;;;;4964206;29;20504;-44
2021/01/20 07:16:11;;;;;;;3.60;2.70;;;5.30;99.90;;;;;;4963684;29;20466;-49
2021/01/20 07:18:44;;;;;;;5.03;3.17;;;5.30;99.90;;;;;;4964431;29;20455;-47
2021/01/20 07:21:10;;;;;;;6.07;3.40;;;5.30;99.90;;;;;;4963853;28;20463;-51
2021/01/20 07:23:37;;;;;;;11.30;4.50;;;5.30;99.90;;;;;;4963735;29;20527;-46
2021/01/20 07:26:05;;;;;;;4.73;3.67;;;5.30;99.90;;;;;;4962869;29;20451;-48
2021/01/20 07:28:33;;;;;;;5.40;3.30;;;5.40;99.90;;;;;;4963371;29;20483;-47
2021/01/20 07:31:12;;;;;;;6.13;3.13;;;5.40;99.90;;;;;;4963165;29;20447;-48
2021/01/20 07:33:40;;;;;;;6.03;2.90;;;5.30;99.90;;;;;;4962610;29;20479;-49
2021/01/20 07:36:11;;;;;;;3.17;2.50;;;5.30;99.90;;;;;;4963702;29;20513;-48
2021/01/20 07:38:38;;;;;;;6.60;3.63;;;5.30;99.90;;;;;;4974059;28;20502;-51
2021/01/20 07:41:15;;;;;;;7.37;4.50;;;5.30;99.90;;;;;;4997601;28;20486;-49
2021/01/20 07:43:42;;;;;;;4.80;3.30;;;5.40;99.90;;;;;;4997355;28;20463;-50
2021/01/20 07:46:21;;;;;;;4.40;3.97;;;5.50;99.90;;;;;;4998018;28;20478;-50
2021/01/20 07:48:48;;;;;;;8.83;3.37;;;5.50;99.90;;;;;;4998308;28;20447;-50
2021/01/20 07:51:17;;;;;;;3.20;2.90;;;5.60;99.90;;;;;;4997989;28;20451;-49
2021/01/20 07:53:59;;;;;;;4.73;3.17;;;5.60;99.90;;;;;;4998228;28;20968;-52
2021/01/20 07:56:26;;;;;;;4.20;3.13;;;5.60;99.90;;;;;;4979360;29;20496;-52
2021/01/20 07:58:52;;;;;;;8.00;3.77;;;5.60;99.90;;;;;;4979126;29;20479;-55
2021/01/20 08:01:27;;;;;;;5.63;3.70;;;5.60;99.90;;;;;;4978282;29;20426;-50
2021/01/20 08:03:54;;;;;;;8.37;3.87;;;5.60;99.90;;;;;;4978167;29;20463;-51
2021/01/20 08:06:21;;;;;;;6.30;3.47;;;5.60;99.90;;;;;;4996081;28;20443;-50
2021/01/20 08:08:57;;;;;;;4.43;3.47;;;5.60;99.90;;;;;;4983724;28;20491;-49
2021/01/20 08:11:28;;;;;;;8.23;3.40;;;5.70;99.90;;;;;;4977433;29;20440;-52
2021/01/20 08:13:56;;;;;;;4.50;3.00;;;5.70;99.90;;;;;;4977702;29;20451;-49
2021/01/20 08:16:23;;;;;;;6.23;4.40;;;5.70;99.90;;;;;;4977770;29;20435;-47
2021/01/20 08:18:51;;;;;;;6.40;3.90;;;5.70;99.90;;;;;;4991301;28;20458;-52
2021/01/20 08:21:17;;;;;;;7.47;3.87;;;5.70;99.90;;;;;;4994964;28;20442;-49
2021/01/20 08:23:49;;;;;;;5.57;3.30;;;5.70;99.90;;;;;;4978340;28;20480;-48
2021/01/20 08:26:22;;;;;;;6.43;3.13;;;5.70;99.90;;;;;;4979832;28;20443;-45
2021/01/20 08:29:02;;;;;;;5.50;3.40;;;5.70;99.90;;;;;;4983135;28;20443;-47
2021/01/20 08:31:29;;;;;;;7.13;3.90;;;5.80;99.90;;;;;;4984276;28;20464;-44
2021/01/20 08:34:18;;;;;;;6.77;3.27;;;5.80;99.90;;;;;;4973604;28;20447;-44
2021/01/20 08:36:56;;;;;;;6.43;3.23;;;5.80;99.90;;;;;;4979615;28;20446;-46
2021/01/20 08:39:23;;;;;;;3.77;2.93;;;5.90;99.90;;;;;;4991989;28;20442;-46
2021/01/20 08:42:13;;;;;;;4.83;2.93;;;5.90;99.90;;;;;;4994124;28;20443;-50
2021/01/20 08:44:39;;;;;;;4.43;3.47;;;6.00;99.90;;;;;;4994461;28;20470;-48
2021/01/20 08:47:07;;;;;;;4.60;3.13;;;6.00;99.90;;;;;;4993754;28;20481;-46
2021/01/20 08:49:35;;;;;;;5.63;2.87;;;6.00;99.90;;;;;;4993583;28;20478;-47
2021/01/20 08:52:01;;;;;;;6.50;2.83;;;6.00;99.90;;;;;;4993990;28;20913;-47
2021/01/20 08:54:28;;;;;;;4.43;2.57;;;6.00;99.90;;;;;;4993408;28;20466;-47
2021/01/20 08:57:15;;;;;;;4.97;3.00;;;6.10;99.90;;;;;;4996121;28;20474;-40
2021/01/20 08:59:52;;;;;;;5.10;3.00;;;6.10;99.90;;;;;;4990303;28;20833;-43
2021/01/20 09:02:19;;;;;;;5.17;3.00;;;6.20;99.90;;;;;;4988931;28;20473;-44
2021/01/20 09:04:47;;;;;;;3.80;3.10;;;6.30;99.90;;;;;;4993151;28;20454;-43
2021/01/20 09:07:14;;;;;;;4.57;3.00;;;6.30;99.90;;;;;;4978235;28;20557;-40
2021/01/20 09:09:41;;;;;;;5.50;3.30;;;6.40;99.90;;;;;;4987422;28;20491;-40
2021/01/20 09:12:08;;;;;;;7.03;2.93;;;6.50;99.90;;;;;;4983197;28;20511;-42
2021/01/20 09:14:38;;;;;;;5.33;3.57;;;6.60;99.90;;;;;;4986290;28;20450;-42
2021/01/20 09:17:05;;;;;;;4.77;4.37;;;6.60;99.90;;;;;;4981664;28;20502;-41
2021/01/20 09:19:33;;;;;;;10.40;4.27;;;6.60;99.90;;;;;;4973441;28;20456;-40
2021/01/20 09:22:01;;;;;;;6.40;3.80;;;6.70;99.90;;;;;;4977700;28;20473;-42
2021/01/20 09:24:29;;;;;;;6.90;5.10;;;6.70;99.90;;;;;;4975004;28;20463;-40
2021/01/20 09:26:56;;;;;;;7.57;4.50;;;6.80;99.90;;;;;;4972411;28;20563;-40
2021/01/20 09:29:27;;;;;;;4.97;3.40;;;6.70;99.90;;;;;;4966048;28;20554;-41
2021/01/20 09:31:54;;;;;;;7.87;4.00;;;6.80;99.90;;;;;;4968884;28;20664;-44
2021/01/20 09:34:21;;;;;;;3.17;2.70;;;6.80;99.90;;;;;;4970985;28;20459;-41
2021/01/20 09:36:48;;;;;;;8.23;3.80;;;6.90;99.90;;;;;;4966674;28;20922;-41
2021/01/20 09:39:16;;;;;;;7.67;3.07;;;6.90;99.90;;;;;;4976135;28;20448;-39
2021/01/20 09:41:43;;;;;;;4.00;3.10;;;7.00;99.90;;;;;;4978904;28;20891;-41
2021/01/20 09:44:10;;;;;;;8.60;3.00;;;7.10;99.90;;;;;;4987805;28;20535;-42
2021/01/20 09:46:36;;;;;;;5.70;2.90;;;7.20;99.90;;;;;;4972341;28;20483;-43
2021/01/20 09:49:03;;;;;;;6.10;2.97;;;7.30;99.90;;;;;;4979272;28;20463;-43
2021/01/20 09:51:30;;;;;;;3.13;2.17;;;7.50;99.90;;;;;;4967556;28;20447;-44
2021/01/20 09:53:57;;;;;;;4.63;2.63;;;7.70;99.90;;;;;;4973359;28;20451;-44
2021/01/20 09:56:24;;;;;;;3.57;3.00;;;7.90;99.90;;;;;;4975361;28;20454;-41
2021/01/20 09:58:51;;;;;;;9.40;3.07;;;8.20;99.90;;;;;;4971750;28;20665;-41
2021/01/20 10:01:17;;;;;;;4.37;2.90;;;8.40;99.90;;;;;;4976818;28;20452;-45
2021/01/20 10:03:44;;;;;;;11.13;5.30;;;8.50;99.90;;;;;;4965084;28;20556;-43
2021/01/20 10:06:13;;;;;;;4.50;2.73;;;8.70;99.90;;;;;;4975248;28;20470;-44
2021/01/20 10:08:40;;;;;;;4.47;2.70;;;8.90;99.90;;;;;;4977007;28;20476;-41
2021/01/20 10:11:07;;;;;;;3.50;3.00;;;9.00;99.90;;;;;;4979573;28;20462;-45
2021/01/20 10:13:35;;;;;;;4.40;3.50;;;8.80;99.90;;;;;;4968546;28;20451;-41
2021/01/20 10:16:02;;;;;;;4.30;3.20;;;8.60;99.90;;;;;;4963861;28;20515;-45
2021/01/20 10:18:29;;;;;;;7.10;2.63;;;8.70;99.90;;;;;;4976064;28;20482;-57
2021/01/20 10:20:56;;;;;;;6.57;2.60;;;8.80;99.90;;;;;;4971293;28;20542;-63
2021/01/20 10:23:24;;;;;;;4.33;2.83;;;8.80;99.90;;;;;;4970125;28;20876;-61
2021/01/20 10:25:53;;;;;;;4.67;2.30;;;8.70;99.90;;;;;;4964597;28;20451;-51
2021/01/20 10:28:20;;;;;;;3.63;2.27;;;8.60;99.90;;;;;;4970230;28;20455;-64
2021/01/20 10:30:49;;;;;;;3.40;2.83;;;8.50;99.90;;;;;;4967458;28;20452;-62
2021/01/20 10:33:16;;;;;;;5.10;3.13;;;8.60;99.90;;;;;;4970579;28;20449;-54
2021/01/20 10:35:43;;;;;;;5.17;3.20;;;8.80;99.90;;;;;;4970968;28;20470;-47
2021/01/20 10:38:10;;;;;;;4.23;3.60;;;9.00;99.90;;;;;;4967344;28;20521;-50
2021/01/20 10:40:37;;;;;;;4.80;3.07;;;8.90;99.90;;;;;;4971636;28;20914;-50
2021/01/20 10:43:04;;;;;;;4.13;3.17;;;8.80;99.90;;;;;;4960562;28;20479;-50
2021/01/20 10:45:30;;;;;;;2.77;2.30;;;8.70;99.90;;;;;;4962773;28;20794;-51
2021/01/20 10:47:58;;;;;;;4.90;2.87;;;8.70;99.90;;;;;;4970212;28;20454;-50
2021/01/20 10:50:25;;;;;;;4.50;2.70;;;8.70;99.90;;;;;;4975579;28;20448;-53
2021/01/20 10:52:56;;;;;;;4.90;3.23;;;8.70;99.90;;;;;;4978731;28;20451;-53
2021/01/20 10:55:23;;;;;;;6.57;4.10;;;8.60;99.90;;;;;;4974765;28;20443;-49
2021/01/20 10:57:49;;;;;;;7.10;3.30;;;8.60;99.90;;;;;;4965605;28;20451;-53
2021/01/20 11:00:17;;;;;;;4.30;3.00;;;8.50;99.90;;;;;;4972292;28;20957;-53
2021/01/20 11:02:44;;;;;;;5.77;3.00;;;8.50;99.90;;;;;;4962807;28;20965;-55
2021/01/20 11:05:12;;;;;;;4.57;2.70;;;8.60;99.90;;;;;;4975314;28;20869;-49
2021/01/20 11:07:40;;;;;;;3.83;2.70;;;8.60;99.90;;;;;;4976237;28;20491;-54
2021/01/20 11:10:09;;;;;;;2.30;2.00;;;8.60;99.90;;;;;;4974565;28;20462;-51
2021/01/20 11:12:36;;;;;;;4.87;2.77;;;8.60;99.90;;;;;;4975192;28;20502;-53
2021/01/20 11:15:03;;;;;;;4.33;2.67;;;8.60;99.90;;;;;;4971360;28;20447;-50
2021/01/20 11:17:29;;;;;;;3.63;2.60;;;8.60;99.90;;;;;;4967061;28;20463;-52
2021/01/20 11:19:56;;;;;;;3.90;2.20;;;8.70;99.90;;;;;;4961395;28;20530;-53
2021/01/20 11:22:23;;;;;;;6.17;3.13;;;8.70;99.90;;;;;;4966225;28;20478;-53
2021/01/20 11:25:00;;;;;;;3.93;1.90;;;8.80;99.90;;;;;;4969206;28;20488;-49
2021/01/20 11:27:27;;;;;;;7.93;3.40;;;8.90;99.90;;;;;;4967436;28;20499;-49
2021/01/20 11:29:53;;;;;;;6.27;2.70;;;8.90;99.90;;;;;;4965863;28;20456;-53
2021/01/20 11:32:20;;;;;;;4.87;2.50;;;8.90;99.90;;;;;;4970597;28;20458;-51
2021/01/20 11:34:47;;;;;;;3.30;2.40;;;9.00;99.90;;;;;;4963761;28;20468;-52
2021/01/20 11:37:13;;;;;;;4.87;3.10;;;9.00;99.90;;;;;;4974144;28;20443;-55
2021/01/20 11:39:41;;;;;;;3.20;1.73;;;9.00;99.90;;;;;;4972200;28;20488;-50
2021/01/20 11:42:08;;;;;;;3.27;2.73;;;9.10;99.90;;;;;;4967869;28;20471;-55
2021/01/20 11:44:37;;;;;;;3.97;2.40;;;9.00;99.90;;;;;;4959424;29;20535;-56
2021/01/20 11:47:04;;;;;;;2.13;1.80;;;9.10;99.90;;;;;;4960137;29;20444;-53
2021/01/20 11:49:31;;;;;;;3.33;2.53;;;9.00;99.90;;;;;;4962091;29;20844;-53
2021/01/20 11:51:58;;;;;;;8.00;4.67;;;9.10;99.90;;;;;;4963263;29;20546;-53
2021/01/20 11:54:25;;;;;;;3.90;2.63;;;9.10;99.90;;;;;;4946020;29;20479;-55
2021/01/20 11:56:55;;;;;;;4.23;2.30;;;9.20;99.90;;;;;;4961944;29;20479;-52
2021/01/20 11:59:22;;;;;;;4.03;2.13;;;9.20;99.90;;;;;;4963675;29;20539;-52
2021/01/20 12:01:49;;;;;;;3.53;2.50;;;9.30;99.90;;;;;;4963082;29;20443;-50
2021/01/20 12:04:16;;;;;;;3.93;2.70;;;9.30;99.90;;;;;;4963274;29;20499;-53
2021/01/20 12:06:42;;;;;;;3.63;2.03;;;9.40;99.90;;;;;;4964452;28;20467;-48
2021/01/20 12:09:09;;;;;;;5.07;2.77;;;9.40;99.90;;;;;;4967422;29;20815;-48
2021/01/20 12:11:35;;;;;;;2.90;1.80;;;9.40;99.90;;;;;;4967114;29;20769;-50
2021/01/20 12:14:03;;;;;;;4.40;2.37;;;9.40;99.90;;;;;;4966849;29;20515;-55
2021/01/20 12:16:30;;;;;;;4.70;2.00;;;9.50;99.90;;;;;;4966461;29;20456;-55
2021/01/20 12:18:56;;;;;;;2.20;1.53;;;9.50;99.90;;;;;;4966186;29;20447;-57
2021/01/20 12:21:23;;;;;;;2.63;1.70;;;9.60;99.90;;;;;;4965998;29;20451;-55
2021/01/20 12:23:50;;;;;;;2.03;1.50;;;9.70;99.90;;;;;;4966076;29;20978;-54
2021/01/20 12:26:19;;;;;;;2.50;1.70;;;9.80;99.90;;;;;;4966063;29;20455;-54
2021/01/20 12:28:46;;;;;;;3.00;2.03;;;9.80;99.90;;;;;;4966463;29;20452;-55
2021/01/20 12:31:14;;;;;;;2.10;1.63;;;9.90;99.90;;;;;;4965598;29;20448;-52
2021/01/20 12:33:40;;;;;;;2.30;2.10;;;9.80;99.90;;;;;;4965476;29;20486;-53
2021/01/20 12:36:07;;;;;;;3.10;2.30;;;9.90;99.90;;;;;;4966130;29;20461;-55
2021/01/20 12:38:34;;;;;;;2.97;1.40;;;9.90;99.90;;;;;;4965130;29;20456;-52
2021/01/20 12:41:02;;;;;;;2.90;1.53;;;9.90;99.90;;;;;;4965569;29;20586;-55
2021/01/20 12:43:29;;;;;;;3.50;2.20;;;10.00;99.90;;;;;;4964792;29;20487;-53
2021/01/20 12:45:55;;;;;;;10.80;2.87;;;10.00;99.90;;;;;;4965304;29;20923;-52
2021/01/20 12:48:24;;;;;;;3.60;1.80;;;10.00;99.90;;;;;;4965579;29;20551;-52
2021/01/20 12:50:50;;;;;;;2.60;1.90;;;10.00;99.90;;;;;;4965130;29;20755;-54
2021/01/20 12:53:17;;;;;;;3.83;1.87;;;10.00;99.90;;;;;;4965882;29;20452;-52
2021/01/20 12:55:44;;;;;;;3.07;1.40;;;10.00;99.90;;;;;;4957078;29;20483;-56
2021/01/20 12:58:11;;;;;;;2.07;1.80;;;10.00;99.90;;;;;;4964281;29;20531;-53
2021/01/20 13:00:38;;;;;;;2.03;1.60;;;10.00;99.90;;;;;;4965072;29;20455;-53
2021/01/20 13:03:05;;;;;;;3.40;1.97;;;10.00;99.90;;;;;;4964693;29;20890;-55
2021/01/20 13:05:32;;;;;;;5.87;1.83;;;10.00;99.90;;;;;;4964511;29;20883;-54
2021/01/20 13:07:59;;;;;;;2.33;1.70;;;10.00;99.90;;;;;;4964438;29;20483;-53
2021/01/20 13:10:26;;;;;;;2.37;1.53;;;10.00;99.90;;;;;;4964585;29;20505;-53
2021/01/20 13:12:58;;;;;;;1.87;1.50;;;10.00;99.90;;;;;;4964723;29;20452;-52
2021/01/20 13:15:26;;;;;;;2.00;1.30;;;10.00;99.90;;;;;;4964308;29;20803;-51
2021/01/20 13:17:53;;;;;;;3.00;1.97;;;10.10;99.90;;;;;;4968811;28;20450;-55
2021/01/20 13:20:20;;;;;;;2.07;1.60;;;10.10;99.90;;;;;;4961680;28;20825;-56
2021/01/20 13:22:48;;;;;;;2.10;1.53;;;10.00;99.90;;;;;;4974830;28;20933;-55
2021/01/20 13:25:17;;;;;;;3.43;1.93;;;10.00;99.90;;;;;;4964702;28;20440;-51
2021/01/20 13:27:44;;;;;;;3.07;1.77;;;10.00;99.90;;;;;;4958015;28;20447;-55
2021/01/20 13:30:12;;;;;;;3.33;1.97;;;10.00;99.90;;;;;;4965598;28;20583;-52
2021/01/20 13:32:38;;;;;;;6.00;2.50;;;10.10;99.90;;;;;;4971911;28;20447;-53
2021/01/20 13:35:06;;;;;;;4.60;2.20;;;10.00;99.90;;;;;;4965904;28;20966;-50
2021/01/20 13:37:33;;;;;;;1.70;1.50;;;10.00;99.90;;;;;;4966593;28;20487;-51
2021/01/20 13:40:01;;;;;;;2.80;1.40;;;9.90;99.90;;;;;;4968092;28;20447;-53
2021/01/20 13:42:28;;;;;;;2.43;1.63;;;9.90;99.90;;;;;;4968609;28;20539;-48
2021/01/20 13:44:55;;;;;;;2.70;1.77;;;9.80;99.90;;;;;;4971027;28;20447;-51
2021/01/20 13:47:22;;;;;;;4.80;2.53;;;9.80;99.90;;;;;;4967497;28;20521;-49
2021/01/20 13:49:48;;;;;;;3.10;2.30;;;9.70;99.90;;;;;;4963427;28;20458;-53
2021/01/20 13:52:15;;;;;;;4.50;2.40;;;9.80;99.90;;;;;;4970586;28;20435;-52
2021/01/20 13:54:42;;;;;;;4.60;1.93;;;9.80;99.90;;;;;;4963269;28;20483;-50